sensor_id;sensor_type;location;lat;lon;timestamp;temperature;humidity
59075;DHT22;44860;53.020;6.738;2022-09-06T00:01:16;20.60;69.80
59075;DHT22;44860;53.020;6.738;2022-09-06T00:03:42;20.60;70.50
59075;DHT22;44860;53.020;6.738;2022-09-06T00:06:18;20.60;71.60
59075;DHT22;44860;53.020;6.738;2022-09-06T00:08:46;20.50;70.50
59075;DHT22;44860;53.020;6.738;2022-09-06T00:11:13;20.50;71.10
59075;DHT22;44860;53.020;6.738;2022-09-06T00:13:39;20.50;70.90
59075;DHT22;44860;53.020;6.738;2022-09-06T00:16:11;20.40;71.20
59075;DHT22;44860;53.020;6.738;2022-09-06T00:18:37;20.40;71.50
59075;DHT22;44860;53.020;6.738;2022-09-06T00:21:04;20.40;71.70
59075;DHT22;44860;53.020;6.738;2022-09-06T00:23:36;20.30;71.90
59075;DHT22;44860;53.020;6.738;2022-09-06T00:26:03;20.30;71.70
59075;DHT22;44860;53.020;6.738;2022-09-06T00:28:29;20.30;72.00
59075;DHT22;44860;53.020;6.738;2022-09-06T00:30:55;20.30;71.90
59075;DHT22;44860;53.020;6.738;2022-09-06T00:33:22;20.30;72.00
59075;DHT22;44860;53.020;6.738;2022-09-06T00:35:48;20.20;72.00
59075;DHT22;44860;53.020;6.738;2022-09-06T00:38:14;20.20;72.30
59075;DHT22;44860;53.020;6.738;2022-09-06T00:40:39;20.20;72.50
59075;DHT22;44860;53.020;6.738;2022-09-06T00:43:06;20.20;72.80
59075;DHT22;44860;53.020;6.738;2022-09-06T00:45:32;20.20;73.00
59075;DHT22;44860;53.020;6.738;2022-09-06T00:47:59;20.10;72.80
59075;DHT22;44860;53.020;6.738;2022-09-06T00:50:26;20.10;72.90
59075;DHT22;44860;53.020;6.738;2022-09-06T00:52:52;20.10;72.90
59075;DHT22;44860;53.020;6.738;2022-09-06T00:55:19;20.10;73.20
59075;DHT22;44860;53.020;6.738;2022-09-06T00:57:46;20.10;73.10
59075;DHT22;44860;53.020;6.738;2022-09-06T01:00:16;20.10;73.40
59075;DHT22;44860;53.020;6.738;2022-09-06T01:02:42;20.00;74.00
59075;DHT22;44860;53.020;6.738;2022-09-06T01:05:08;20.00;74.10
59075;DHT22;44860;53.020;6.738;2022-09-06T01:18:39;19.80;77.00
59075;DHT22;44860;53.020;6.738;2022-09-06T01:26:58;19.60;80.30
59075;DHT22;44860;53.020;6.738;2022-09-06T01:30:06;19.60;81.60
59075;DHT22;44860;53.020;6.738;2022-09-06T01:35:27;19.40;83.50
59075;DHT22;44860;53.020;6.738;2022-09-06T01:37:55;19.40;84.20
59075;DHT22;44860;53.020;6.738;2022-09-06T01:40:21;19.40;85.00
59075;DHT22;44860;53.020;6.738;2022-09-06T01:42:47;19.30;86.20
59075;DHT22;44860;53.020;6.738;2022-09-06T01:45:19;19.30;87.40
59075;DHT22;44860;53.020;6.738;2022-09-06T01:51:35;19.20;88.40
59075;DHT22;44860;53.020;6.738;2022-09-06T01:56:31;19.20;88.20
59075;DHT22;44860;53.020;6.738;2022-09-06T02:01:45;19.10;89.10
59075;DHT22;44860;53.020;6.738;2022-09-06T02:04:19;19.10;89.40
59075;DHT22;44860;53.020;6.738;2022-09-06T02:06:48;19.10;90.00
59075;DHT22;44860;53.020;6.738;2022-09-06T02:09:20;19.00;90.10
59075;DHT22;44860;53.020;6.738;2022-09-06T02:11:58;19.00;90.30
59075;DHT22;44860;53.020;6.738;2022-09-06T02:14:40;19.00;90.30
59075;DHT22;44860;53.020;6.738;2022-09-06T02:17:11;19.00;90.10
59075;DHT22;44860;53.020;6.738;2022-09-06T02:19:52;19.00;90.00
59075;DHT22;44860;53.020;6.738;2022-09-06T02:22:22;19.00;90.20
59075;DHT22;44860;53.020;6.738;2022-09-06T02:24:51;19.00;90.30
59075;DHT22;44860;53.020;6.738;2022-09-06T02:27:18;18.90;90.60
59075;DHT22;44860;53.020;6.738;2022-09-06T02:29:44;18.90;90.60
59075;DHT22;44860;53.020;6.738;2022-09-06T02:32:22;18.90;90.80
59075;DHT22;44860;53.020;6.738;2022-09-06T02:34:50;18.90;91.20
59075;DHT22;44860;53.020;6.738;2022-09-06T02:37:16;18.80;91.50
59075;DHT22;44860;53.020;6.738;2022-09-06T02:39:43;18.80;91.60
59075;DHT22;44860;53.020;6.738;2022-09-06T02:42:10;18.80;91.90
59075;DHT22;44860;53.020;6.738;2022-09-06T02:44:37;18.80;92.20
59075;DHT22;44860;53.020;6.738;2022-09-06T02:47:03;18.80;92.40
59075;DHT22;44860;53.020;6.738;2022-09-06T02:49:29;18.70;92.80
59075;DHT22;44860;53.020;6.738;2022-09-06T02:51:55;18.70;93.00
59075;DHT22;44860;53.020;6.738;2022-09-06T02:54:21;18.70;93.30
59075;DHT22;44860;53.020;6.738;2022-09-06T02:56:47;18.60;93.60
59075;DHT22;44860;53.020;6.738;2022-09-06T02:59:13;18.60;93.90
59075;DHT22;44860;53.020;6.738;2022-09-06T03:01:39;18.60;94.30
59075;DHT22;44860;53.020;6.738;2022-09-06T03:04:04;18.50;94.70
59075;DHT22;44860;53.020;6.738;2022-09-06T03:06:30;18.50;95.10
59075;DHT22;44860;53.020;6.738;2022-09-06T03:08:56;18.40;96.00
59075;DHT22;44860;53.020;6.738;2022-09-06T03:11:21;18.40;95.80
59075;DHT22;44860;53.020;6.738;2022-09-06T03:13:47;18.40;95.90
59075;DHT22;44860;53.020;6.738;2022-09-06T03:16:15;18.40;96.20
59075;DHT22;44860;53.020;6.738;2022-09-06T03:18:41;18.30;96.30
59075;DHT22;44860;53.020;6.738;2022-09-06T03:21:07;18.30;96.40
59075;DHT22;44860;53.020;6.738;2022-09-06T03:23:32;18.30;96.50
59075;DHT22;44860;53.020;6.738;2022-09-06T03:25:58;18.30;96.60
59075;DHT22;44860;53.020;6.738;2022-09-06T03:28:24;18.20;96.70
59075;DHT22;44860;53.020;6.738;2022-09-06T03:30:50;18.30;96.40
59075;DHT22;44860;53.020;6.738;2022-09-06T03:33:16;18.30;96.30
59075;DHT22;44860;53.020;6.738;2022-09-06T03:35:57;18.30;96.00
59075;DHT22;44860;53.020;6.738;2022-09-06T03:38:24;18.30;95.70
59075;DHT22;44860;53.020;6.738;2022-09-06T03:40:50;18.30;95.90
59075;DHT22;44860;53.020;6.738;2022-09-06T03:43:17;18.30;96.00
59075;DHT22;44860;53.020;6.738;2022-09-06T03:45:45;18.30;96.00
59075;DHT22;44860;53.020;6.738;2022-09-06T03:48:11;18.30;95.80
59075;DHT22;44860;53.020;6.738;2022-09-06T03:50:37;18.30;95.60
59075;DHT22;44860;53.020;6.738;2022-09-06T03:53:02;18.40;95.40
59075;DHT22;44860;53.020;6.738;2022-09-06T03:55:28;18.40;95.30
59075;DHT22;44860;53.020;6.738;2022-09-06T03:57:54;18.40;95.50
59075;DHT22;44860;53.020;6.738;2022-09-06T04:00:19;18.40;95.50
59075;DHT22;44860;53.020;6.738;2022-09-06T04:02:45;18.40;95.20
59075;DHT22;44860;53.020;6.738;2022-09-06T04:05:10;18.40;95.20
59075;DHT22;44860;53.020;6.738;2022-09-06T04:07:41;18.40;95.10
59075;DHT22;44860;53.020;6.738;2022-09-06T04:10:07;18.40;95.10
59075;DHT22;44860;53.020;6.738;2022-09-06T04:12:33;18.40;95.00
59075;DHT22;44860;53.020;6.738;2022-09-06T04:14:59;18.50;95.10
59075;DHT22;44860;53.020;6.738;2022-09-06T04:17:24;18.50;94.90
59075;DHT22;44860;53.020;6.738;2022-09-06T04:19:50;18.40;94.80
59075;DHT22;44860;53.020;6.738;2022-09-06T04:22:16;18.50;94.70
59075;DHT22;44860;53.020;6.738;2022-09-06T04:24:41;18.50;94.70
59075;DHT22;44860;53.020;6.738;2022-09-06T04:27:07;18.50;94.70
59075;DHT22;44860;53.020;6.738;2022-09-06T04:29:33;18.50;94.70
59075;DHT22;44860;53.020;6.738;2022-09-06T04:31:58;18.50;94.70
59075;DHT22;44860;53.020;6.738;2022-09-06T04:34:24;18.50;95.00
59075;DHT22;44860;53.020;6.738;2022-09-06T04:36:49;18.50;95.10
59075;DHT22;44860;53.020;6.738;2022-09-06T04:39:15;18.50;95.10
59075;DHT22;44860;53.020;6.738;2022-09-06T04:41:41;18.50;95.40
59075;DHT22;44860;53.020;6.738;2022-09-06T04:44:07;18.40;95.70
59075;DHT22;44860;53.020;6.738;2022-09-06T04:46:32;18.50;96.20
59075;DHT22;44860;53.020;6.738;2022-09-06T04:48:58;18.50;96.70
59075;DHT22;44860;53.020;6.738;2022-09-06T04:51:26;18.40;96.70
59075;DHT22;44860;53.020;6.738;2022-09-06T04:53:52;18.40;96.80
59075;DHT22;44860;53.020;6.738;2022-09-06T04:56:22;18.40;97.10
59075;DHT22;44860;53.020;6.738;2022-09-06T04:58:49;18.40;97.20
59075;DHT22;44860;53.020;6.738;2022-09-06T05:01:15;18.30;97.60
59075;DHT22;44860;53.020;6.738;2022-09-06T05:03:41;18.30;98.20
59075;DHT22;44860;53.020;6.738;2022-09-06T05:06:12;18.40;98.60
59075;DHT22;44860;53.020;6.738;2022-09-06T05:08:39;18.40;99.20
59075;DHT22;44860;53.020;6.738;2022-09-06T05:11:06;18.40;99.80
59075;DHT22;44860;53.020;6.738;2022-09-06T05:13:32;18.40;99.90
59075;DHT22;44860;53.020;6.738;2022-09-06T05:16:03;18.30;99.90
59075;DHT22;44860;53.020;6.738;2022-09-06T05:18:29;18.30;99.90
59075;DHT22;44860;53.020;6.738;2022-09-06T05:20:55;18.30;99.90
59075;DHT22;44860;53.020;6.738;2022-09-06T05:23:21;18.30;99.90
59075;DHT22;44860;53.020;6.738;2022-09-06T05:25:48;18.30;99.90
59075;DHT22;44860;53.020;6.738;2022-09-06T05:28:14;18.30;99.90
59075;DHT22;44860;53.020;6.738;2022-09-06T05:30:41;18.20;99.90
59075;DHT22;44860;53.020;6.738;2022-09-06T05:33:07;18.20;99.90
59075;DHT22;44860;53.020;6.738;2022-09-06T05:35:33;18.20;99.90
59075;DHT22;44860;53.020;6.738;2022-09-06T05:37:59;18.30;99.90
59075;DHT22;44860;53.020;6.738;2022-09-06T05:40:25;18.20;99.90
59075;DHT22;44860;53.020;6.738;2022-09-06T05:42:50;18.20;99.90
59075;DHT22;44860;53.020;6.738;2022-09-06T05:45:16;18.20;99.90
59075;DHT22;44860;53.020;6.738;2022-09-06T05:47:42;18.20;99.90
59075;DHT22;44860;53.020;6.738;2022-09-06T05:50:08;18.20;99.90
59075;DHT22;44860;53.020;6.738;2022-09-06T05:52:34;18.20;99.90
59075;DHT22;44860;53.020;6.738;2022-09-06T05:55:01;18.10;99.90
59075;DHT22;44860;53.020;6.738;2022-09-06T05:57:27;18.20;99.90
59075;DHT22;44860;53.020;6.738;2022-09-06T05:59:53;18.10;99.90
59075;DHT22;44860;53.020;6.738;2022-09-06T06:02:22;18.20;99.90
59075;DHT22;44860;53.020;6.738;2022-09-06T06:04:48;18.20;99.90
59075;DHT22;44860;53.020;6.738;2022-09-06T06:07:14;18.20;99.90
59075;DHT22;44860;53.020;6.738;2022-09-06T06:09:40;18.20;99.90
59075;DHT22;44860;53.020;6.738;2022-09-06T06:12:06;18.20;99.90
59075;DHT22;44860;53.020;6.738;2022-09-06T06:14:32;18.30;99.90
59075;DHT22;44860;53.020;6.738;2022-09-06T06:16:58;18.30;99.90
59075;DHT22;44860;53.020;6.738;2022-09-06T06:19:24;18.20;99.90
59075;DHT22;44860;53.020;6.738;2022-09-06T06:21:51;18.30;99.90
59075;DHT22;44860;53.020;6.738;2022-09-06T06:24:17;18.30;99.90
59075;DHT22;44860;53.020;6.738;2022-09-06T06:26:43;18.30;99.90
59075;DHT22;44860;53.020;6.738;2022-09-06T06:29:09;18.30;99.90
59075;DHT22;44860;53.020;6.738;2022-09-06T06:31:36;18.30;99.90
59075;DHT22;44860;53.020;6.738;2022-09-06T06:34:06;18.30;99.90
59075;DHT22;44860;53.020;6.738;2022-09-06T06:36:33;18.30;99.90
59075;DHT22;44860;53.020;6.738;2022-09-06T06:39:00;18.30;99.90
59075;DHT22;44860;53.020;6.738;2022-09-06T06:41:28;18.40;99.90
59075;DHT22;44860;53.020;6.738;2022-09-06T06:43:55;18.40;99.90
59075;DHT22;44860;53.020;6.738;2022-09-06T06:46:24;18.50;99.90
59075;DHT22;44860;53.020;6.738;2022-09-06T06:48:50;18.40;99.90
59075;DHT22;44860;53.020;6.738;2022-09-06T06:51:18;18.40;99.90
59075;DHT22;44860;53.020;6.738;2022-09-06T06:53:47;18.50;99.90
59075;DHT22;44860;53.020;6.738;2022-09-06T06:56:14;18.40;99.90
59075;DHT22;44860;53.020;6.738;2022-09-06T06:58:41;18.40;99.90
59075;DHT22;44860;53.020;6.738;2022-09-06T07:01:07;18.40;99.90
59075;DHT22;44860;53.020;6.738;2022-09-06T07:03:34;18.40;99.90
59075;DHT22;44860;53.020;6.738;2022-09-06T07:06:03;18.40;99.90
59075;DHT22;44860;53.020;6.738;2022-09-06T07:08:29;18.40;99.90
59075;DHT22;44860;53.020;6.738;2022-09-06T07:10:54;18.50;99.90
59075;DHT22;44860;53.020;6.738;2022-09-06T07:13:20;18.50;99.90
59075;DHT22;44860;53.020;6.738;2022-09-06T07:15:45;18.60;99.90
59075;DHT22;44860;53.020;6.738;2022-09-06T07:18:14;18.60;99.90
59075;DHT22;44860;53.020;6.738;2022-09-06T07:20:40;18.60;99.90
59075;DHT22;44860;53.020;6.738;2022-09-06T07:23:06;18.70;99.90
59075;DHT22;44860;53.020;6.738;2022-09-06T07:25:32;18.70;99.90
59075;DHT22;44860;53.020;6.738;2022-09-06T07:28:05;18.70;99.90
59075;DHT22;44860;53.020;6.738;2022-09-06T07:30:35;18.80;99.90
59075;DHT22;44860;53.020;6.738;2022-09-06T07:33:04;18.80;99.90
59075;DHT22;44860;53.020;6.738;2022-09-06T07:35:30;18.90;99.90
59075;DHT22;44860;53.020;6.738;2022-09-06T07:37:58;18.90;99.90
59075;DHT22;44860;53.020;6.738;2022-09-06T07:40:25;18.90;99.90
59075;DHT22;44860;53.020;6.738;2022-09-06T07:42:52;19.00;99.90
59075;DHT22;44860;53.020;6.738;2022-09-06T07:45:20;19.00;99.90
59075;DHT22;44860;53.020;6.738;2022-09-06T07:47:55;19.10;99.90
59075;DHT22;44860;53.020;6.738;2022-09-06T07:50:23;19.10;99.90
59075;DHT22;44860;53.020;6.738;2022-09-06T07:52:49;19.20;99.90
59075;DHT22;44860;53.020;6.738;2022-09-06T07:55:14;19.30;99.90
59075;DHT22;44860;53.020;6.738;2022-09-06T07:57:40;19.30;99.90
59075;DHT22;44860;53.020;6.738;2022-09-06T08:00:06;19.40;99.90
59075;DHT22;44860;53.020;6.738;2022-09-06T08:02:32;19.50;99.90
59075;DHT22;44860;53.020;6.738;2022-09-06T08:04:58;19.60;99.90
59075;DHT22;44860;53.020;6.738;2022-09-06T08:07:23;19.70;99.90
59075;DHT22;44860;53.020;6.738;2022-09-06T08:09:49;19.80;99.90
59075;DHT22;44860;53.020;6.738;2022-09-06T08:12:16;19.90;99.90
59075;DHT22;44860;53.020;6.738;2022-09-06T08:14:42;20.00;99.90
59075;DHT22;44860;53.020;6.738;2022-09-06T08:17:08;20.00;99.90
59075;DHT22;44860;53.020;6.738;2022-09-06T08:19:33;20.10;99.90
59075;DHT22;44860;53.020;6.738;2022-09-06T08:21:59;20.20;99.90
59075;DHT22;44860;53.020;6.738;2022-09-06T08:24:25;20.30;99.90
59075;DHT22;44860;53.020;6.738;2022-09-06T08:26:50;20.40;99.90
59075;DHT22;44860;53.020;6.738;2022-09-06T08:29:17;20.50;99.90
59075;DHT22;44860;53.020;6.738;2022-09-06T08:31:44;20.60;99.90
59075;DHT22;44860;53.020;6.738;2022-09-06T08:34:10;20.80;99.90
59075;DHT22;44860;53.020;6.738;2022-09-06T08:36:39;20.90;99.90
59075;DHT22;44860;53.020;6.738;2022-09-06T08:39:07;20.90;99.90
59075;DHT22;44860;53.020;6.738;2022-09-06T08:41:57;21.00;99.90
59075;DHT22;44860;53.020;6.738;2022-09-06T08:44:47;21.20;99.90
59075;DHT22;44860;53.020;6.738;2022-09-06T08:47:16;21.40;99.90
59075;DHT22;44860;53.020;6.738;2022-09-06T08:49:44;21.50;99.90
59075;DHT22;44860;53.020;6.738;2022-09-06T08:59:37;21.80;99.90
59075;DHT22;44860;53.020;6.738;2022-09-06T09:02:19;21.80;99.90
59075;DHT22;44860;53.020;6.738;2022-09-06T09:04:56;21.90;99.90
59075;DHT22;44860;53.020;6.738;2022-09-06T09:07:36;22.00;99.90
59075;DHT22;44860;53.020;6.738;2022-09-06T09:10:29;22.20;99.90
59075;DHT22;44860;53.020;6.738;2022-09-06T09:12:53;22.20;99.70
59075;DHT22;44860;53.020;6.738;2022-09-06T09:15:20;22.40;98.70
59075;DHT22;44860;53.020;6.738;2022-09-06T09:17:47;22.60;97.50
59075;DHT22;44860;53.020;6.738;2022-09-06T09:20:14;22.70;95.70
59075;DHT22;44860;53.020;6.738;2022-09-06T09:22:41;22.70;95.20
59075;DHT22;44860;53.020;6.738;2022-09-06T09:25:10;22.70;94.40
59075;DHT22;44860;53.020;6.738;2022-09-06T09:27:37;22.70;93.50
59075;DHT22;44860;53.020;6.738;2022-09-06T09:30:05;22.80;93.90
59075;DHT22;44860;53.020;6.738;2022-09-06T09:32:40;22.80;94.50
59075;DHT22;44860;53.020;6.738;2022-09-06T09:38:09;22.90;94.10
59075;DHT22;44860;53.020;6.738;2022-09-06T09:40:39;22.90;94.50
59075;DHT22;44860;53.020;6.738;2022-09-06T09:43:13;23.20;94.20
59075;DHT22;44860;53.020;6.738;2022-09-06T09:45:40;23.40;93.00
59075;DHT22;44860;53.020;6.738;2022-09-06T09:50:46;23.60;90.30
59075;DHT22;44860;53.020;6.738;2022-09-06T09:53:16;23.70;89.10
59075;DHT22;44860;53.020;6.738;2022-09-06T09:55:41;23.80;88.60
59075;DHT22;44860;53.020;6.738;2022-09-06T09:58:28;23.90;87.40
59075;DHT22;44860;53.020;6.738;2022-09-06T10:03:39;24.10;83.80
59075;DHT22;44860;53.020;6.738;2022-09-06T10:06:07;24.20;81.00
59075;DHT22;44860;53.020;6.738;2022-09-06T10:08:38;24.20;79.80
59075;DHT22;44860;53.020;6.738;2022-09-06T10:11:04;24.40;79.20
59075;DHT22;44860;53.020;6.738;2022-09-06T10:13:30;24.50;79.00
59075;DHT22;44860;53.020;6.738;2022-09-06T10:15:57;24.50;77.70
59075;DHT22;44860;53.020;6.738;2022-09-06T10:18:39;24.70;75.50
59075;DHT22;44860;53.020;6.738;2022-09-06T10:21:15;24.80;75.70
59075;DHT22;44860;53.020;6.738;2022-09-06T10:24:07;24.80;75.30
59075;DHT22;44860;53.020;6.738;2022-09-06T10:26:52;24.90;74.80
59075;DHT22;44860;53.020;6.738;2022-09-06T10:29:44;24.90;74.60
59075;DHT22;44860;53.020;6.738;2022-09-06T10:37:46;25.10;70.60
59075;DHT22;44860;53.020;6.738;2022-09-06T10:43:05;25.30;70.00
59075;DHT22;44860;53.020;6.738;2022-09-06T10:45:59;25.50;67.50
59075;DHT22;44860;53.020;6.738;2022-09-06T10:48:32;25.60;62.30
59075;DHT22;44860;53.020;6.738;2022-09-06T10:53:56;25.70;60.10
59075;DHT22;44860;53.020;6.738;2022-09-06T10:56:42;25.80;60.00
59075;DHT22;44860;53.020;6.738;2022-09-06T10:59:32;25.80;59.00
59075;DHT22;44860;53.020;6.738;2022-09-06T11:04:45;25.90;58.50
59075;DHT22;44860;53.020;6.738;2022-09-06T11:07:19;26.00;58.50
59075;DHT22;44860;53.020;6.738;2022-09-06T11:10:02;26.10;56.90
59075;DHT22;44860;53.020;6.738;2022-09-06T11:15:25;26.20;56.20
59075;DHT22;44860;53.020;6.738;2022-09-06T11:18:14;26.20;54.90
59075;DHT22;44860;53.020;6.738;2022-09-06T11:23:51;26.20;55.40
59075;DHT22;44860;53.020;6.738;2022-09-06T11:28:57;26.50;54.80
59075;DHT22;44860;53.020;6.738;2022-09-06T11:31:31;26.50;54.20
59075;DHT22;44860;53.020;6.738;2022-09-06T11:34:27;26.60;53.70
59075;DHT22;44860;53.020;6.738;2022-09-06T11:36:55;26.70;53.60
59075;DHT22;44860;53.020;6.738;2022-09-06T11:39:33;26.70;53.60
59075;DHT22;44860;53.020;6.738;2022-09-06T11:42:00;26.80;51.70
59075;DHT22;44860;53.020;6.738;2022-09-06T11:47:35;26.90;51.30
59075;DHT22;44860;53.020;6.738;2022-09-06T11:52:58;27.00;51.20
59075;DHT22;44860;53.020;6.738;2022-09-06T11:55:37;27.00;51.50
59075;DHT22;44860;53.020;6.738;2022-09-06T11:58:08;27.10;50.70
59075;DHT22;44860;53.020;6.738;2022-09-06T12:00:34;27.20;50.90
59075;DHT22;44860;53.020;6.738;2022-09-06T12:03:00;27.30;50.30
59075;DHT22;44860;53.020;6.738;2022-09-06T12:05:29;27.40;49.20
59075;DHT22;44860;53.020;6.738;2022-09-06T12:08:20;27.60;47.80
59075;DHT22;44860;53.020;6.738;2022-09-06T12:10:55;27.70;48.20
59075;DHT22;44860;53.020;6.738;2022-09-06T12:13:54;27.80;46.90
59075;DHT22;44860;53.020;6.738;2022-09-06T12:16:21;27.90;45.90
59075;DHT22;44860;53.020;6.738;2022-09-06T12:21:38;28.00;45.70
59075;DHT22;44860;53.020;6.738;2022-09-06T12:24:07;28.00;46.00
59075;DHT22;44860;53.020;6.738;2022-09-06T12:26:46;28.10;43.90
59075;DHT22;44860;53.020;6.738;2022-09-06T12:29:14;28.10;43.50
59075;DHT22;44860;53.020;6.738;2022-09-06T12:31:42;28.20;42.80
59075;DHT22;44860;53.020;6.738;2022-09-06T12:34:34;28.30;42.50
59075;DHT22;44860;53.020;6.738;2022-09-06T12:37:07;28.30;42.50
59075;DHT22;44860;53.020;6.738;2022-09-06T12:39:35;28.40;42.00
59075;DHT22;44860;53.020;6.738;2022-09-06T12:42:04;28.40;41.50
59075;DHT22;44860;53.020;6.738;2022-09-06T12:44:40;28.40;40.10
59075;DHT22;44860;53.020;6.738;2022-09-06T12:49:39;28.50;38.00
59075;DHT22;44860;53.020;6.738;2022-09-06T12:52:18;28.50;39.00
59075;DHT22;44860;53.020;6.738;2022-09-06T12:54:47;28.50;40.50
59075;DHT22;44860;53.020;6.738;2022-09-06T12:57:24;28.60;39.00
59075;DHT22;44860;53.020;6.738;2022-09-06T12:59:55;28.60;38.50
59075;DHT22;44860;53.020;6.738;2022-09-06T13:05:31;28.70;39.10
59075;DHT22;44860;53.020;6.738;2022-09-06T13:07:59;28.70;37.80
59075;DHT22;44860;53.020;6.738;2022-09-06T13:10:28;28.80;37.20
59075;DHT22;44860;53.020;6.738;2022-09-06T13:12:56;28.80;37.40
59075;DHT22;44860;53.020;6.738;2022-09-06T13:15:28;28.90;36.60
59075;DHT22;44860;53.020;6.738;2022-09-06T13:18:31;28.80;36.80
59075;DHT22;44860;53.020;6.738;2022-09-06T13:21:09;28.80;37.00
59075;DHT22;44860;53.020;6.738;2022-09-06T13:23:45;28.80;37.40
59075;DHT22;44860;53.020;6.738;2022-09-06T13:26:14;28.90;36.40
59075;DHT22;44860;53.020;6.738;2022-09-06T13:28:55;29.00;35.90
59075;DHT22;44860;53.020;6.738;2022-09-06T13:31:21;29.00;35.60
59075;DHT22;44860;53.020;6.738;2022-09-06T13:33:57;29.10;35.70
59075;DHT22;44860;53.020;6.738;2022-09-06T13:36:29;29.20;36.50
59075;DHT22;44860;53.020;6.738;2022-09-06T13:38:56;29.20;35.40
59075;DHT22;44860;53.020;6.738;2022-09-06T13:44:06;29.40;35.30
59075;DHT22;44860;53.020;6.738;2022-09-06T13:46:40;29.40;35.80
59075;DHT22;44860;53.020;6.738;2022-09-06T13:49:06;29.40;36.10
59075;DHT22;44860;53.020;6.738;2022-09-06T13:51:33;29.40;35.90
59075;DHT22;44860;53.020;6.738;2022-09-06T13:54:06;29.50;36.60
59075;DHT22;44860;53.020;6.738;2022-09-06T13:56:32;29.60;36.00
59075;DHT22;44860;53.020;6.738;2022-09-06T13:58:58;29.60;35.30
59075;DHT22;44860;53.020;6.738;2022-09-06T14:01:24;29.60;35.60
59075;DHT22;44860;53.020;6.738;2022-09-06T14:03:49;29.60;36.30
59075;DHT22;44860;53.020;6.738;2022-09-06T14:06:15;29.70;36.40
59075;DHT22;44860;53.020;6.738;2022-09-06T14:08:41;29.80;36.50
59075;DHT22;44860;53.020;6.738;2022-09-06T14:11:07;29.90;35.60
59075;DHT22;44860;53.020;6.738;2022-09-06T14:13:33;29.90;34.40
59075;DHT22;44860;53.020;6.738;2022-09-06T14:15:59;29.80;34.90
59075;DHT22;44860;53.020;6.738;2022-09-06T14:18:24;29.70;35.80
59075;DHT22;44860;53.020;6.738;2022-09-06T14:20:54;29.80;35.90
59075;DHT22;44860;53.020;6.738;2022-09-06T14:23:22;29.90;35.50
59075;DHT22;44860;53.020;6.738;2022-09-06T14:25:49;29.90;34.50
59075;DHT22;44860;53.020;6.738;2022-09-06T14:28:18;29.90;34.50
59075;DHT22;44860;53.020;6.738;2022-09-06T14:30:44;29.90;33.40
59075;DHT22;44860;53.020;6.738;2022-09-06T14:33:10;29.80;33.40
59075;DHT22;44860;53.020;6.738;2022-09-06T14:35:36;29.80;34.50
59075;DHT22;44860;53.020;6.738;2022-09-06T14:38:03;29.70;34.60
59075;DHT22;44860;53.020;6.738;2022-09-06T14:40:33;29.80;34.10
59075;DHT22;44860;53.020;6.738;2022-09-06T14:42:59;29.80;33.50
59075;DHT22;44860;53.020;6.738;2022-09-06T14:45:25;29.70;33.20
59075;DHT22;44860;53.020;6.738;2022-09-06T14:47:51;29.50;33.60
59075;DHT22;44860;53.020;6.738;2022-09-06T14:50:17;29.50;34.00
59075;DHT22;44860;53.020;6.738;2022-09-06T14:52:42;29.40;34.70
59075;DHT22;44860;53.020;6.738;2022-09-06T14:55:08;29.40;34.40
59075;DHT22;44860;53.020;6.738;2022-09-06T14:57:34;29.50;35.00
59075;DHT22;44860;53.020;6.738;2022-09-06T15:00:00;29.50;34.30
59075;DHT22;44860;53.020;6.738;2022-09-06T15:02:29;29.50;33.80
59075;DHT22;44860;53.020;6.738;2022-09-06T15:04:55;29.40;34.80
59075;DHT22;44860;53.020;6.738;2022-09-06T15:07:20;29.50;34.00
59075;DHT22;44860;53.020;6.738;2022-09-06T15:09:46;29.50;33.80
59075;DHT22;44860;53.020;6.738;2022-09-06T15:12:12;29.50;33.80
59075;DHT22;44860;53.020;6.738;2022-09-06T15:14:37;29.60;34.30
59075;DHT22;44860;53.020;6.738;2022-09-06T15:17:05;29.70;33.50
59075;DHT22;44860;53.020;6.738;2022-09-06T15:19:33;29.80;32.80
59075;DHT22;44860;53.020;6.738;2022-09-06T15:22:02;29.90;32.60
59075;DHT22;44860;53.020;6.738;2022-09-06T15:24:29;29.80;32.50
59075;DHT22;44860;53.020;6.738;2022-09-06T15:26:54;29.70;32.30
59075;DHT22;44860;53.020;6.738;2022-09-06T15:29:20;29.70;32.40
59075;DHT22;44860;53.020;6.738;2022-09-06T15:31:47;29.60;32.70
59075;DHT22;44860;53.020;6.738;2022-09-06T15:34:24;29.40;32.80
59075;DHT22;44860;53.020;6.738;2022-09-06T15:36:51;29.40;32.80
59075;DHT22;44860;53.020;6.738;2022-09-06T15:39:17;29.40;33.10
59075;DHT22;44860;53.020;6.738;2022-09-06T15:41:43;29.40;33.00
59075;DHT22;44860;53.020;6.738;2022-09-06T15:44:11;29.40;33.40
59075;DHT22;44860;53.020;6.738;2022-09-06T15:46:45;29.40;33.00
59075;DHT22;44860;53.020;6.738;2022-09-06T15:49:17;29.40;34.20
59075;DHT22;44860;53.020;6.738;2022-09-06T15:51:43;29.40;33.50
59075;DHT22;44860;53.020;6.738;2022-09-06T15:54:11;29.40;33.40
59075;DHT22;44860;53.020;6.738;2022-09-06T15:56:36;29.40;33.00
59075;DHT22;44860;53.020;6.738;2022-09-06T15:59:03;29.40;33.90
59075;DHT22;44860;53.020;6.738;2022-09-06T16:01:29;29.40;34.00
59075;DHT22;44860;53.020;6.738;2022-09-06T16:03:58;29.40;33.80
59075;DHT22;44860;53.020;6.738;2022-09-06T16:06:29;29.40;33.90
59075;DHT22;44860;53.020;6.738;2022-09-06T16:08:58;29.40;33.60
59075;DHT22;44860;53.020;6.738;2022-09-06T16:11:25;29.50;34.80
59075;DHT22;44860;53.020;6.738;2022-09-06T16:13:50;29.50;33.80
59075;DHT22;44860;53.020;6.738;2022-09-06T16:16:16;29.50;33.90
59075;DHT22;44860;53.020;6.738;2022-09-06T16:18:43;29.40;34.50
59075;DHT22;44860;53.020;6.738;2022-09-06T16:21:13;29.40;34.60
59075;DHT22;44860;53.020;6.738;2022-09-06T16:23:40;29.40;33.60
59075;DHT22;44860;53.020;6.738;2022-09-06T16:26:07;29.40;33.00
59075;DHT22;44860;53.020;6.738;2022-09-06T16:28:35;29.40;32.90
59075;DHT22;44860;53.020;6.738;2022-09-06T16:31:06;29.40;33.70
59075;DHT22;44860;53.020;6.738;2022-09-06T16:33:33;29.40;33.80
59075;DHT22;44860;53.020;6.738;2022-09-06T16:36:00;29.50;33.20
59075;DHT22;44860;53.020;6.738;2022-09-06T16:38:30;29.60;33.20
59075;DHT22;44860;53.020;6.738;2022-09-06T16:41:08;29.70;34.10
59075;DHT22;44860;53.020;6.738;2022-09-06T16:43:35;29.60;33.30
59075;DHT22;44860;53.020;6.738;2022-09-06T16:46:01;29.50;33.60
59075;DHT22;44860;53.020;6.738;2022-09-06T16:48:27;29.40;35.00
59075;DHT22;44860;53.020;6.738;2022-09-06T16:50:54;29.30;34.00
59075;DHT22;44860;53.020;6.738;2022-09-06T16:53:20;29.10;34.60
59075;DHT22;44860;53.020;6.738;2022-09-06T16:55:46;28.90;35.20
59075;DHT22;44860;53.020;6.738;2022-09-06T16:58:12;28.80;36.30
59075;DHT22;44860;53.020;6.738;2022-09-06T17:00:39;28.60;36.60
59075;DHT22;44860;53.020;6.738;2022-09-06T17:03:05;28.50;37.60
59075;DHT22;44860;53.020;6.738;2022-09-06T17:05:34;28.30;38.30